Sabadell, Spain
Current Conditions -  °F | °C
As of 7:30 AM on Thursday 29 Jan 2015 (Local Time) from LEBL Reporting Station
Few Clouds Few Clouds  
Wind Chill: 38°   Ceiling: Unl
Heat Index: 43°   Visibility: 6mi
Dew Point: 37°   Wind: 8mph
Humidity: 81%   Direction: 330°NNW
Pressure: 29.85"   Gusts: NA
Location:  41.55°N, 2.11°E
Report Text: LEBL 290630Z 33007KT 260V350 9999 FEW025 06/03 Q1011 NOSIG
Loading
Personal Weather Stations






























Interactive Weather Map New forecast layout! Learn more

10-Day Weather Forecast

Advertisements
Track Severe Weather on mobile